createdAt,value
2022-12-08T00:00:48.040Z,94259
2022-12-08T00:04:13.311Z,94252
2022-12-08T00:07:38.622Z,94252
2022-12-08T00:11:03.868Z,94247
2022-12-08T00:14:29.177Z,94252
2022-12-08T00:17:54.502Z,94245
2022-12-08T00:21:19.747Z,94242
2022-12-08T00:24:45.038Z,94236
2022-12-08T00:28:10.292Z,94231
2022-12-08T00:31:35.599Z,94227
2022-12-08T00:35:00.994Z,94226
2022-12-08T00:38:26.140Z,94228
2022-12-08T00:41:51.400Z,94227
2022-12-08T00:45:16.648Z,94218
2022-12-08T00:48:41.971Z,94214
2022-12-08T00:52:07.234Z,94217
2022-12-08T00:55:32.509Z,94209
2022-12-08T00:58:57.774Z,94211
2022-12-08T01:02:23.004Z,94212
2022-12-08T01:05:48.314Z,94208
2022-12-08T01:09:13.573Z,94212
2022-12-08T01:12:38.828Z,94203
2022-12-08T01:16:04.146Z,94208
2022-12-08T01:19:29.396Z,94199
2022-12-08T01:22:54.707Z,94195
2022-12-08T01:26:19.954Z,94201
2022-12-08T01:29:45.199Z,94198
2022-12-08T01:33:10.464Z,94196
2022-12-08T01:36:35.716Z,94195
2022-12-08T01:40:01.280Z,94199
2022-12-08T01:43:26.256Z,94199
2022-12-08T01:46:51.482Z,94197
2022-12-08T01:50:16.758Z,94188
2022-12-08T01:53:42.033Z,94190
2022-12-08T01:57:07.341Z,94186
2022-12-08T02:00:32.588Z,94186
2022-12-08T02:03:57.836Z,94181
2022-12-08T02:07:23.091Z,94180
2022-12-08T02:10:48.359Z,94179
2022-12-08T02:14:13.700Z,94183
2022-12-08T02:17:38.944Z,94176
2022-12-08T02:21:04.233Z,94169
2022-12-08T02:24:29.489Z,94168
2022-12-08T02:27:54.788Z,94157
2022-12-08T02:31:20.165Z,94158
2022-12-08T02:34:45.369Z,94155
2022-12-08T02:38:10.609Z,94160
2022-12-08T02:41:35.948Z,94155
2022-12-08T02:45:01.199Z,94149
2022-12-08T02:48:26.477Z,94158
2022-12-08T02:51:51.740Z,94151
2022-12-08T02:55:17.021Z,94148
2022-12-08T02:58:42.313Z,94153
2022-12-08T03:02:07.599Z,94149
2022-12-08T03:05:32.862Z,94142
2022-12-08T03:08:58.171Z,94139
2022-12-08T03:12:23.431Z,94140
2022-12-08T03:15:48.755Z,94133
2022-12-08T03:19:13.966Z,94130
2022-12-08T03:22:39.275Z,94129
2022-12-08T03:26:04.519Z,94120
2022-12-08T03:29:29.814Z,94126
2022-12-08T03:32:55.078Z,94112
2022-12-08T03:36:20.297Z,94111
2022-12-08T03:39:45.603Z,94113
2022-12-08T03:43:10.828Z,94115
2022-12-08T03:46:36.086Z,94117
2022-12-08T03:50:01.522Z,94112
2022-12-08T03:53:26.622Z,94109
2022-12-08T03:56:51.891Z,94110
2022-12-08T04:00:17.129Z,94104
2022-12-08T04:03:42.424Z,94105
2022-12-08T04:07:07.687Z,94093
2022-12-08T04:10:32.951Z,94087
2022-12-08T04:13:58.262Z,94092
2022-12-08T04:17:23.519Z,94081
2022-12-08T04:20:48.801Z,94091
2022-12-08T04:24:14.077Z,94088
2022-12-08T04:27:39.310Z,94095
2022-12-08T04:31:04.749Z,94096
2022-12-08T04:34:29.925Z,94101
2022-12-08T04:37:55.210Z,94099
2022-12-08T04:41:21.024Z,94091
2022-12-08T04:44:46.268Z,94089
2022-12-08T04:48:11.538Z,94092
2022-12-08T04:51:36.751Z,94091
2022-12-08T04:55:02.009Z,94084
2022-12-08T04:58:27.255Z,94079
2022-12-08T05:01:52.639Z,94081
2022-12-08T05:05:17.758Z,94079
2022-12-08T05:08:43.023Z,94083
2022-12-08T05:12:08.247Z,94085
2022-12-08T05:15:33.502Z,94086
2022-12-08T05:18:58.745Z,94089
2022-12-08T05:22:24.018Z,94084
2022-12-08T05:25:49.213Z,94085
2022-12-08T05:29:14.464Z,94091
2022-12-08T05:32:39.703Z,94089
2022-12-08T05:36:04.934Z,94081
2022-12-08T05:39:30.241Z,94078
2022-12-08T05:42:55.462Z,94075
2022-12-08T05:46:20.790Z,94073
2022-12-08T05:49:45.964Z,94065
2022-12-08T05:53:11.221Z,94069
2022-12-08T05:56:36.484Z,94066
2022-12-08T06:00:02.067Z,94065
2022-12-08T06:03:27.048Z,94066
2022-12-08T06:06:52.305Z,94066
2022-12-08T06:10:17.554Z,94060
2022-12-08T06:13:42.841Z,94054
2022-12-08T06:17:08.224Z,94059
2022-12-08T06:20:33.555Z,94053
2022-12-08T06:23:58.949Z,94054
2022-12-08T06:27:24.551Z,94062
2022-12-08T06:30:50.083Z,94066
2022-12-08T06:34:15.346Z,94064
2022-12-08T06:37:40.595Z,94072
2022-12-08T06:41:05.964Z,94071
2022-12-08T06:44:31.224Z,94065
2022-12-08T06:47:56.512Z,94066
2022-12-08T06:51:21.773Z,94068
2022-12-08T06:54:47.088Z,94071
2022-12-08T06:58:12.360Z,94075
2022-12-08T07:01:37.691Z,94071
2022-12-08T07:05:02.863Z,94070
2022-12-08T07:08:28.167Z,94071
2022-12-08T07:11:53.426Z,94063
2022-12-08T07:15:18.703Z,94075
2022-12-08T07:18:43.989Z,94076
2022-12-08T07:22:09.301Z,94074
2022-12-08T07:25:34.548Z,94076
2022-12-08T07:28:59.820Z,94075
2022-12-08T07:32:25.080Z,94074
2022-12-08T07:35:50.331Z,94079
2022-12-08T07:39:15.646Z,94075
2022-12-08T07:42:40.883Z,94069
2022-12-08T07:46:06.201Z,94074
2022-12-08T07:49:31.433Z,94075
2022-12-08T07:52:56.685Z,94077
2022-12-08T07:56:22.004Z,94072
2022-12-08T07:59:47.239Z,94073
2022-12-08T08:03:12.556Z,94073
2022-12-08T08:06:37.741Z,94072
2022-12-08T08:10:03.315Z,94072
2022-12-08T08:13:28.368Z,94066
2022-12-08T08:16:53.619Z,94072
2022-12-08T08:20:18.812Z,94067
2022-12-08T08:23:44.083Z,94075
2022-12-08T08:27:09.366Z,94074
2022-12-08T08:30:34.647Z,94077
2022-12-08T08:33:59.863Z,94071
2022-12-08T08:37:25.211Z,94072
2022-12-08T08:40:50.332Z,94077
2022-12-08T08:44:15.650Z,94077
2022-12-08T08:47:40.940Z,94081
2022-12-08T08:51:06.231Z,94074
2022-12-08T08:54:31.473Z,94076
2022-12-08T08:57:56.740Z,94072
2022-12-08T09:01:22.112Z,94080
2022-12-08T09:04:47.421Z,94084
2022-12-08T09:08:12.608Z,94084
2022-12-08T09:11:37.810Z,94084
2022-12-08T09:15:03.098Z,94080
2022-12-08T09:18:28.380Z,94084
2022-12-08T09:21:53.694Z,94075
2022-12-08T09:25:18.985Z,94081
2022-12-08T09:28:44.252Z,94073
2022-12-08T09:32:09.531Z,94077
2022-12-08T09:35:34.891Z,94083
2022-12-08T09:39:00.198Z,94078
2022-12-08T09:42:25.411Z,94069
2022-12-08T09:45:50.678Z,94066
2022-12-08T09:49:16.031Z,94065
2022-12-08T09:52:41.266Z,94066
2022-12-08T09:56:06.528Z,94060
2022-12-08T09:59:31.729Z,94054
2022-12-08T10:02:56.998Z,94059
2022-12-08T10:06:22.231Z,94059
2022-12-08T10:09:47.506Z,94055
2022-12-08T10:13:12.768Z,94051
2022-12-08T10:16:38.043Z,94046
2022-12-08T10:20:03.716Z,94038
2022-12-08T10:23:28.477Z,94039
2022-12-08T10:26:53.726Z,94036
2022-12-08T10:30:19.122Z,94026
2022-12-08T10:33:44.329Z,94027
2022-12-08T10:37:09.557Z,94027
2022-12-08T10:40:36.097Z,94028
2022-12-08T10:44:00.027Z,94023
2022-12-08T10:47:25.298Z,94023
2022-12-08T10:50:50.528Z,94024
2022-12-08T10:54:20.545Z,94021
2022-12-08T10:57:41.034Z,94022
2022-12-08T11:01:06.362Z,94021
2022-12-08T11:04:31.600Z,94018
2022-12-08T11:07:56.869Z,94011
2022-12-08T11:11:27.671Z,94009
2022-12-08T11:14:47.333Z,94008
2022-12-08T11:18:12.602Z,94007
2022-12-08T11:21:37.872Z,94003
2022-12-08T11:25:03.113Z,94002
2022-12-08T11:28:28.345Z,93996
2022-12-08T11:31:53.630Z,93993
2022-12-08T11:35:18.818Z,93994
2022-12-08T11:38:44.112Z,93995
2022-12-08T11:42:09.324Z,93985
2022-12-08T11:45:34.632Z,93980
2022-12-08T11:49:04.305Z,93976
2022-12-08T11:52:25.082Z,93970
2022-12-08T11:55:50.456Z,93965
2022-12-08T11:59:15.632Z,93965
2022-12-08T12:02:40.914Z,93963
2022-12-08T12:06:13.510Z,93952
2022-12-08T12:09:31.414Z,93952
2022-12-08T12:12:56.696Z,93955
2022-12-08T12:16:21.975Z,93955
2022-12-08T12:20:35.477Z,93952
2022-12-08T12:24:00.735Z,93953
2022-12-08T12:27:25.972Z,93955
2022-12-08T12:30:51.385Z,93952
2022-12-08T12:34:16.529Z,93950
2022-12-08T12:37:41.781Z,93944
2022-12-08T12:41:07.065Z,93940
2022-12-08T12:44:32.319Z,93946
2022-12-08T12:47:57.589Z,93939
2022-12-08T12:51:22.849Z,93938
2022-12-08T12:54:48.167Z,93935
2022-12-08T12:58:13.457Z,93936
2022-12-08T13:01:38.753Z,93927
2022-12-08T13:05:03.970Z,93925
2022-12-08T13:08:29.278Z,93924
2022-12-08T13:11:54.468Z,93926
2022-12-08T13:15:19.710Z,93925
2022-12-08T13:18:44.962Z,93922
2022-12-08T13:22:10.241Z,93917
2022-12-08T13:25:37.049Z,93923
2022-12-08T13:29:00.848Z,93923
2022-12-08T13:32:26.136Z,93924
2022-12-08T13:35:51.400Z,93927
2022-12-08T13:39:16.668Z,93929
2022-12-08T13:42:41.925Z,93921
2022-12-08T13:50:55.525Z,93918
2022-12-08T13:59:48.166Z,93919
2022-12-08T14:03:13.463Z,93919
2022-12-08T14:06:39.055Z,93925
2022-12-08T14:10:05.585Z,93922
2022-12-08T14:13:31.081Z,93926
2022-12-08T14:16:56.625Z,93928
2022-12-08T14:20:22.373Z,93926
2022-12-08T14:23:47.680Z,93933
2022-12-08T14:27:12.960Z,93931
2022-12-08T14:30:38.235Z,93937
2022-12-08T15:05:58.279Z,93949
2022-12-08T15:09:23.685Z,93949
2022-12-08T15:12:49.088Z,93952
2022-12-08T15:16:14.549Z,93947
2022-12-08T15:19:39.850Z,93949
2022-12-08T15:23:05.251Z,93950
2022-12-08T15:26:30.583Z,93946
2022-12-08T15:29:55.948Z,93950
2022-12-08T15:33:21.304Z,93948
2022-12-08T15:36:46.607Z,93958
2022-12-08T15:40:11.961Z,93960
2022-12-08T15:43:37.222Z,93956
2022-12-08T15:47:02.638Z,93961
2022-12-08T15:50:27.932Z,93958
2022-12-08T15:53:55.694Z,93957
2022-12-08T15:57:35.824Z,93961
2022-12-08T16:00:54.966Z,93964
2022-12-08T16:04:47.717Z,93959
2022-12-08T16:07:40.862Z,93959
2022-12-08T16:11:57.112Z,93950
2022-12-08T16:15:48.360Z,93943
2022-12-08T16:18:29.351Z,93945
2022-12-08T16:25:21.295Z,93946
2022-12-08T16:28:53.700Z,93940
2022-12-08T16:32:10.769Z,93939
2022-12-08T16:35:35.879Z,93940
2022-12-08T16:39:01.163Z,93938
2022-12-08T16:42:26.431Z,93937
2022-12-08T16:45:51.745Z,93942
2022-12-08T16:49:17.008Z,93944
2022-12-08T16:52:42.614Z,93940
2022-12-08T16:56:07.875Z,93947
2022-12-08T16:59:35.038Z,93953
2022-12-08T17:03:00.394Z,93947
2022-12-08T17:06:25.672Z,93938
2022-12-08T17:09:54.261Z,93932
2022-12-08T17:13:18.500Z,93936
2022-12-08T17:16:44.160Z,93935
2022-12-08T17:20:09.485Z,93941
2022-12-08T17:23:34.674Z,93938
2022-12-08T17:26:59.896Z,93945
2022-12-08T17:30:25.133Z,93938
2022-12-08T17:33:50.406Z,93937
2022-12-08T17:37:15.636Z,93936
2022-12-08T17:40:40.931Z,93932
2022-12-08T17:44:06.201Z,93935
2022-12-08T17:47:31.430Z,93939
2022-12-08T17:50:56.689Z,93932
2022-12-08T17:54:21.930Z,93942
2022-12-08T17:57:47.214Z,93947
2022-12-08T18:01:12.521Z,93941
2022-12-08T18:04:37.666Z,93948
2022-12-08T18:08:03.009Z,93939
2022-12-08T18:11:28.155Z,93940
2022-12-08T18:14:53.421Z,93936
2022-12-08T18:18:18.654Z,93934
2022-12-08T18:21:43.902Z,93938
2022-12-08T18:25:09.143Z,93937
2022-12-08T18:28:34.390Z,93937
2022-12-08T18:31:59.653Z,93936
2022-12-08T18:35:24.919Z,93935
2022-12-08T18:38:50.207Z,93936
2022-12-08T18:42:15.457Z,93939
2022-12-08T18:45:40.723Z,93931
2022-12-08T18:49:06.010Z,93937
2022-12-08T18:52:32.417Z,93933
2022-12-08T18:55:56.481Z,93925
2022-12-08T18:59:21.736Z,93933
2022-12-08T19:02:47.005Z,93941
2022-12-08T19:06:12.224Z,93941
2022-12-08T19:09:37.443Z,93952
2022-12-08T19:13:02.680Z,93944
2022-12-08T19:16:28.016Z,93948
2022-12-08T19:19:53.155Z,93943
2022-12-08T19:23:18.430Z,93949
2022-12-08T19:26:43.640Z,93950
2022-12-08T19:30:09.241Z,93947
2022-12-08T19:33:34.152Z,93950
2022-12-08T19:36:59.382Z,93948
2022-12-08T19:40:24.661Z,93949
2022-12-08T19:43:49.885Z,93947
2022-12-08T19:47:15.231Z,93946
2022-12-08T19:50:40.442Z,93941
2022-12-08T19:54:05.883Z,93931
2022-12-08T19:57:31.259Z,93933
2022-12-08T20:00:56.521Z,93935
2022-12-08T20:04:21.876Z,93934
2022-12-08T20:07:47.404Z,93942
2022-12-08T20:11:12.652Z,93935
2022-12-08T20:14:41.509Z,93936
2022-12-08T20:18:03.426Z,93940
2022-12-08T20:21:28.744Z,93942
2022-12-08T20:24:58.393Z,93945
2022-12-08T20:28:19.946Z,93945
2022-12-08T20:31:45.276Z,93948
2022-12-08T20:35:10.563Z,93943
2022-12-08T20:38:35.962Z,93948
2022-12-08T20:42:01.353Z,93947
2022-12-08T20:45:26.632Z,93949
2022-12-08T20:48:51.941Z,93942
2022-12-08T20:52:17.375Z,93948
2022-12-08T20:55:42.753Z,93946
2022-12-08T20:59:08.137Z,93956
2022-12-08T21:02:33.682Z,93958
2022-12-08T21:05:58.770Z,93962
2022-12-08T21:09:24.259Z,93957
2022-12-08T21:12:49.443Z,93954
2022-12-08T21:16:14.676Z,93967
2022-12-08T21:19:39.944Z,93962
2022-12-08T21:23:05.328Z,93965
2022-12-08T21:26:30.406Z,93964
2022-12-08T21:29:55.827Z,93965
2022-12-08T21:33:21.215Z,93966
2022-12-08T21:36:46.351Z,93966
2022-12-08T21:40:12.046Z,93962
2022-12-08T21:43:36.719Z,93961
2022-12-08T21:47:02.205Z,93963
2022-12-08T21:50:27.273Z,93959
2022-12-08T21:53:52.604Z,93953
2022-12-08T21:57:17.728Z,93951
2022-12-08T22:00:43.239Z,93957
2022-12-08T22:04:08.361Z,93959
2022-12-08T22:07:33.657Z,93961
2022-12-08T22:10:58.866Z,93959
2022-12-08T22:14:24.057Z,93960
2022-12-08T22:17:49.479Z,93954
2022-12-08T22:21:14.665Z,93956
2022-12-08T22:24:40.908Z,93942
2022-12-08T22:28:06.932Z,93942
2022-12-08T22:31:33.191Z,93937
2022-12-08T22:34:59.225Z,93937
2022-12-08T22:38:25.395Z,93932
2022-12-08T22:41:51.563Z,93943
2022-12-08T22:45:17.718Z,93943
2022-12-08T22:48:43.897Z,93944
2022-12-08T22:52:10.024Z,93954
2022-12-08T22:55:36.187Z,93949
2022-12-08T22:59:01.496Z,93951
2022-12-08T23:02:26.730Z,93955
2022-12-08T23:05:52.119Z,93955
2022-12-08T23:09:17.302Z,93956
2022-12-08T23:12:42.617Z,93960
2022-12-08T23:16:07.912Z,93957
2022-12-08T23:19:33.140Z,93953
2022-12-08T23:22:58.470Z,93953
2022-12-08T23:26:23.828Z,93956
2022-12-08T23:29:48.974Z,93954
2022-12-08T23:33:14.254Z,93956
2022-12-08T23:36:39.453Z,93950
2022-12-08T23:40:05.342Z,93951
2022-12-08T23:43:29.996Z,93951
2022-12-08T23:46:55.371Z,93950
2022-12-08T23:50:20.594Z,93946
2022-12-08T23:53:45.922Z,93945
2022-12-08T23:57:11.167Z,93953
